Time;durP1;ratioP1;P1;durP2;ratioP2;P2;SDS_P1;SDS_P2;PMS_P1;PMS_P2;Temp;Humidity;BMP_temperature;BMP_pressure;BME280_temperature;BME280_humidity;BME280_pressure;Samples;Min_cycle;Max_cycle;Signal;HPM_P1;HPM_P2
2022/06/16 00:02:01;;;;;;;5.67;5.17;;;21.30;63.50;;;;;;5034662;28;20460;-57
2022/06/16 00:04:29;;;;;;;4.90;4.50;;;21.20;63.20;;;;;;5034762;28;20541;-57
2022/06/16 00:06:56;;;;;;;4.93;4.47;;;21.20;63.30;;;;;;5034160;28;20536;-57
2022/06/16 00:09:24;;;;;;;5.40;4.90;;;21.20;62.70;;;;;;5034565;28;20902;-57
2022/06/16 00:11:51;;;;;;;4.70;4.40;;;21.20;63.30;;;;;;5033808;28;20943;-57
2022/06/16 00:14:19;;;;;;;5.43;4.93;;;21.20;63.70;;;;;;5033453;28;21006;-57
2022/06/16 00:16:46;;;;;;;4.80;4.30;;;21.30;63.40;;;;;;5034069;28;20458;-57
2022/06/16 00:19:15;;;;;;;6.07;5.50;;;21.40;63.10;;;;;;5034050;28;20482;-57
2022/06/16 00:21:42;;;;;;;6.97;5.10;;;21.40;63.60;;;;;;5033972;28;20450;-57
2022/06/16 00:24:10;;;;;;;10.33;5.60;;;21.30;64.00;;;;;;5034393;28;20549;-57
2022/06/16 00:26:38;;;;;;;4.90;4.50;;;21.30;64.40;;;;;;5033971;28;20450;-57
2022/06/16 00:29:05;;;;;;;5.77;5.27;;;21.30;63.90;;;;;;5034295;28;20545;-57
2022/06/16 00:31:33;;;;;;;5.43;4.40;;;21.20;62.80;;;;;;5034125;28;20458;-58
2022/06/16 00:34:00;;;;;;;4.10;3.80;;;21.10;64.10;;;;;;5034065;28;20492;-56
2022/06/16 00:36:28;;;;;;;4.23;3.83;;;21.10;63.90;;;;;;5033831;28;20450;-57
2022/06/16 00:38:56;;;;;;;5.97;4.57;;;21.10;64.30;;;;;;5033910;28;20572;-55
2022/06/16 00:41:23;;;;;;;6.30;4.53;;;21.10;63.80;;;;;;5034134;28;20480;-55
2022/06/16 00:43:50;;;;;;;4.37;3.97;;;21.20;63.40;;;;;;5033859;28;20593;-56
2022/06/16 00:46:19;;;;;;;5.13;4.60;;;20.90;62.70;;;;;;5033872;28;20537;-56
2022/06/16 00:48:50;;;;;;;4.67;4.27;;;20.90;63.50;;;;;;5033744;28;20451;-56
2022/06/16 00:51:21;;;;;;;4.20;3.80;;;20.90;63.50;;;;;;5033912;28;20533;-57
2022/06/16 00:53:50;;;;;;;4.00;3.63;;;21.00;63.70;;;;;;5033489;28;20422;-57
2022/06/16 00:56:19;;;;;;;4.17;3.80;;;20.90;63.30;;;;;;5033499;28;20446;-56
2022/06/16 00:58:48;;;;;;;4.57;4.13;;;20.90;63.60;;;;;;5033611;28;20447;-56
2022/06/16 01:01:19;;;;;;;3.80;3.50;;;20.90;63.60;;;;;;5033713;28;20492;-56
2022/06/16 01:06:31;;;;;;;3.80;3.40;;;20.90;63.30;;;;;;5033315;28;20875;-56
2022/06/16 01:09:03;;;;;;;4.90;4.50;;;20.70;63.10;;;;;;5033600;28;20503;-56
2022/06/16 01:15:09;;;;;;;5.87;4.33;;;20.50;63.80;;;;;;5033218;28;20472;-56
2022/06/16 01:17:47;;;;;;;4.73;4.00;;;20.60;64.00;;;;;;5033231;28;20806;-57
2022/06/16 01:20:24;;;;;;;4.33;3.93;;;20.60;64.40;;;;;;5033206;28;20489;-56
2022/06/16 01:23:26;;;;;;;4.63;4.23;;;20.60;64.60;;;;;;5033484;28;20426;-56
2022/06/16 01:26:07;;;;;;;4.27;3.87;;;20.50;63.80;;;;;;5029249;28;20840;-56
2022/06/16 01:28:46;;;;;;;4.40;3.90;;;20.40;63.80;;;;;;5040053;28;20426;-56
2022/06/16 01:31:19;;;;;;;4.73;4.23;;;20.30;64.40;;;;;;5039948;28;20513;-56
2022/06/16 01:33:55;;;;;;;5.17;4.77;;;20.20;64.70;;;;;;5039762;28;20435;-56
2022/06/16 01:36:27;;;;;;;5.07;4.50;;;20.30;64.70;;;;;;5039743;28;21106;-57
2022/06/16 01:39:01;;;;;;;6.77;4.03;;;20.20;64.80;;;;;;5039927;28;20470;-57
2022/06/16 01:41:33;;;;;;;4.70;4.30;;;20.20;65.20;;;;;;5039899;28;20495;-56
2022/06/16 01:44:07;;;;;;;5.40;4.93;;;20.10;66.50;;;;;;5039563;28;21044;-56
2022/06/16 01:46:39;;;;;;;4.50;4.10;;;20.10;66.40;;;;;;5039914;28;20485;-56
2022/06/16 01:49:11;;;;;;;5.17;4.40;;;20.10;66.00;;;;;;5039776;28;20465;-56
2022/06/16 01:51:42;;;;;;;4.40;4.10;;;20.10;66.30;;;;;;5039839;28;20430;-56
2022/06/16 01:54:15;;;;;;;5.33;4.67;;;20.10;66.40;;;;;;5039999;28;20433;-56
2022/06/16 01:56:47;;;;;;;4.90;4.50;;;20.00;66.60;;;;;;5039402;28;20925;-56
2022/06/16 01:59:23;;;;;;;4.97;4.57;;;20.00;66.80;;;;;;5039195;28;20466;-56
2022/06/16 02:01:56;;;;;;;5.67;4.70;;;19.80;66.80;;;;;;5039272;28;20483;-56
2022/06/16 02:04:36;;;;;;;5.20;4.80;;;19.90;68.20;;;;;;5039896;28;20794;-56
2022/06/16 02:07:10;;;;;;;5.20;4.80;;;20.00;68.70;;;;;;5039368;28;20448;-56
2022/06/16 02:09:42;;;;;;;5.13;4.70;;;20.00;69.10;;;;;;5039807;28;20995;-57
2022/06/16 02:12:55;;;;;;;4.80;4.40;;;20.00;69.50;;;;;;5039660;28;20430;-56
2022/06/16 02:15:10;;;;;;;5.53;5.03;;;20.00;70.00;;;;;;5039164;28;21010;-56
2022/06/16 02:17:37;;;;;;;5.23;4.77;;;19.90;69.10;;;;;;5039320;28;20524;-56
2022/06/16 02:20:05;;;;;;;5.97;4.40;;;19.70;69.40;;;;;;5039339;28;20577;-57
2022/06/16 02:22:32;;;;;;;5.40;4.90;;;19.70;70.50;;;;;;5039524;28;20624;-57
2022/06/16 02:25:00;;;;;;;5.70;5.20;;;19.80;71.60;;;;;;5039415;28;20467;-56
2022/06/16 02:27:27;;;;;;;5.30;4.80;;;19.80;71.40;;;;;;5039557;28;20449;-56
2022/06/16 02:29:54;;;;;;;5.77;4.50;;;19.80;71.90;;;;;;5039480;28;20473;-57
2022/06/16 02:32:37;;;;;;;5.57;4.90;;;19.80;72.10;;;;;;5039445;28;20511;-57
2022/06/16 02:35:17;;;;;;;6.03;4.70;;;19.70;70.90;;;;;;5038741;28;20429;-56
2022/06/16 02:37:57;;;;;;;9.83;4.73;;;19.60;73.00;;;;;;5035653;28;20909;-57
2022/06/16 02:40:45;;;;;;;6.93;5.03;;;19.60;72.30;;;;;;5036315;28;20481;-57
2022/06/16 02:43:29;;;;;;;5.30;4.73;;;19.50;73.20;;;;;;5036031;28;20802;-56
2022/06/16 02:46:04;;;;;;;6.13;5.17;;;19.50;74.10;;;;;;5036235;28;20434;-56
2022/06/16 02:48:42;;;;;;;5.33;4.70;;;19.60;74.40;;;;;;5035973;28;20488;-56
2022/06/16 02:51:14;;;;;;;6.93;5.20;;;19.70;74.30;;;;;;5036026;28;20444;-57
2022/06/16 02:53:48;;;;;;;5.70;5.17;;;19.70;74.90;;;;;;5035912;28;20430;-58
2022/06/16 02:56:24;;;;;;;6.43;5.60;;;19.50;74.30;;;;;;5035902;28;20525;-56
2022/06/16 02:58:53;;;;;;;6.70;5.67;;;19.40;74.20;;;;;;5035697;28;20833;-56
2022/06/16 03:01:21;;;;;;;6.57;5.47;;;19.40;74.80;;;;;;5035500;28;20477;-56
2022/06/16 03:04:04;;;;;;;4.93;4.40;;;19.30;75.30;;;;;;5035574;28;20450;-56
2022/06/16 03:06:31;;;;;;;5.20;4.70;;;19.30;75.70;;;;;;5035492;28;20521;-56
2022/06/16 03:08:59;;;;;;;5.70;5.20;;;19.20;76.40;;;;;;5035892;28;20565;-57
2022/06/16 03:11:26;;;;;;;6.27;5.57;;;19.10;77.50;;;;;;5035707;28;20808;-56
2022/06/16 03:13:54;;;;;;;5.87;5.30;;;19.00;77.30;;;;;;5035297;28;21021;-56
2022/06/16 03:16:21;;;;;;;7.20;5.80;;;19.00;78.30;;;;;;5035516;28;20500;-56
2022/06/16 03:18:49;;;;;;;6.33;5.83;;;19.00;79.10;;;;;;5035655;28;20489;-56
2022/06/16 03:21:18;;;;;;;5.80;5.30;;;19.10;79.30;;;;;;5035478;28;20568;-57
2022/06/16 03:23:45;;;;;;;6.40;5.70;;;19.00;79.00;;;;;;5035087;28;20454;-57
2022/06/16 03:26:13;;;;;;;5.87;5.37;;;18.90;79.90;;;;;;5035172;28;20446;-57
2022/06/16 03:28:40;;;;;;;8.80;6.23;;;18.90;80.90;;;;;;5035049;28;20535;-56
2022/06/16 03:31:07;;;;;;;5.90;4.77;;;18.80;81.10;;;;;;5034914;28;21051;-56
2022/06/16 03:33:35;;;;;;;5.50;5.00;;;19.00;83.40;;;;;;5035275;28;20450;-57
2022/06/16 03:36:02;;;;;;;6.83;5.97;;;19.00;81.50;;;;;;5035101;28;20537;-56
2022/06/16 03:38:34;;;;;;;5.77;5.30;;;18.90;81.80;;;;;;5035165;28;20480;-57
2022/06/16 03:41:02;;;;;;;9.70;6.50;;;18.90;81.90;;;;;;5035029;28;20477;-56
2022/06/16 03:43:29;;;;;;;6.50;6.00;;;19.00;82.50;;;;;;5035396;28;20524;-56
2022/06/16 03:45:56;;;;;;;6.90;5.90;;;19.10;81.50;;;;;;5034685;28;20450;-56
2022/06/16 03:48:23;;;;;;;6.17;5.57;;;19.20;79.20;;;;;;5034886;28;20457;-57
2022/06/16 03:50:50;;;;;;;6.23;5.27;;;19.30;82.30;;;;;;5034521;28;20466;-56
2022/06/16 03:53:18;;;;;;;6.23;5.37;;;19.30;83.50;;;;;;5034550;28;20786;-56
2022/06/16 03:55:47;;;;;;;5.47;4.87;;;19.30;81.80;;;;;;5034806;28;20443;-56
2022/06/16 03:58:14;;;;;;;5.47;5.03;;;19.20;83.50;;;;;;5034832;28;20504;-56
2022/06/16 04:00:42;;;;;;;5.13;4.73;;;19.30;82.30;;;;;;5034330;28;20482;-56
2022/06/16 04:05:55;;;;;;;5.93;5.13;;;19.20;82.30;;;;;;5034450;28;20422;-56
2022/06/16 04:08:22;;;;;;;6.50;5.37;;;19.30;82.60;;;;;;5034483;28;20454;-56
2022/06/16 04:10:50;;;;;;;5.20;4.70;;;19.50;82.20;;;;;;5034317;28;20466;-56
2022/06/16 04:13:18;;;;;;;6.13;5.40;;;19.60;82.70;;;;;;5034155;28;20573;-56
2022/06/16 04:15:45;;;;;;;6.13;5.40;;;19.70;82.70;;;;;;5034400;28;20450;-57
2022/06/16 04:18:12;;;;;;;5.50;5.07;;;19.80;81.80;;;;;;5034511;28;20902;-57
2022/06/16 04:20:40;;;;;;;7.20;5.13;;;19.80;83.30;;;;;;5033817;28;20492;-57
2022/06/16 04:23:10;;;;;;;7.37;5.80;;;;;;;;;;5034003;28;21032;-57
2022/06/16 04:25:37;;;;;;;5.67;5.17;;;20.10;83.50;;;;;;5034125;28;20450;-57
2022/06/16 04:28:08;;;;;;;5.50;5.00;;;20.20;85.00;;;;;;5034237;28;20496;-57
2022/06/16 04:30:35;;;;;;;5.50;4.90;;;20.20;83.00;;;;;;5033892;28;20949;-57
2022/06/16 04:33:04;;;;;;;5.80;5.30;;;20.40;83.90;;;;;;5034243;28;20537;-57
2022/06/16 04:35:31;;;;;;;6.77;5.30;;;20.40;84.70;;;;;;5033840;28;20458;-56
2022/06/16 04:37:58;;;;;;;9.40;6.37;;;20.40;84.30;;;;;;5034101;28;20457;-57
2022/06/16 04:40:25;;;;;;;6.40;5.73;;;20.40;86.40;;;;;;5033816;28;20493;-56
2022/06/16 04:42:52;;;;;;;7.17;6.60;;;20.40;85.60;;;;;;5034028;28;20546;-56
2022/06/16 04:45:22;;;;;;;8.67;5.90;;;20.50;84.90;;;;;;5033617;28;20452;-56
2022/06/16 04:47:49;;;;;;;5.73;5.17;;;20.50;85.90;;;;;;5034089;28;20446;-56
2022/06/16 04:50:18;;;;;;;5.60;5.10;;;20.60;85.60;;;;;;5033805;28;20502;-56
2022/06/16 04:52:46;;;;;;;5.60;5.10;;;20.60;83.60;;;;;;5033929;28;20446;-56
2022/06/16 04:55:13;;;;;;;6.37;5.07;;;20.70;82.80;;;;;;5033651;28;20478;-56
2022/06/16 04:57:41;;;;;;;5.30;4.80;;;20.90;82.60;;;;;;5033745;28;20484;-56
2022/06/16 05:00:10;;;;;;;6.10;5.50;;;20.80;80.50;;;;;;5033091;28;20466;-56
2022/06/16 05:02:39;;;;;;;6.53;5.83;;;20.90;82.50;;;;;;5033347;28;20512;-56
2022/06/16 05:05:07;;;;;;;6.93;5.10;;;20.90;86.50;;;;;;5033707;28;20529;-57
2022/06/16 05:07:34;;;;;;;6.70;6.10;;;20.90;87.80;;;;;;5033535;28;20456;-57
2022/06/16 05:10:02;;;;;;;9.23;5.67;;;20.80;89.80;;;;;;5033481;28;20476;-57
2022/06/16 05:12:29;;;;;;;7.20;6.60;;;20.80;89.70;;;;;;5033261;28;20944;-56
2022/06/16 05:14:56;;;;;;;7.23;6.30;;;20.70;90.00;;;;;;5033138;28;20482;-56
2022/06/16 05:17:23;;;;;;;9.47;6.47;;;20.70;89.50;;;;;;5033302;28;20454;-55
2022/06/16 05:19:52;;;;;;;5.13;4.70;;;20.80;86.90;;;;;;5033232;28;20837;-56
2022/06/16 05:22:20;;;;;;;6.13;5.50;;;20.80;87.10;;;;;;5033231;28;20913;-56
2022/06/16 05:24:47;;;;;;;6.33;5.27;;;20.90;86.90;;;;;;5033337;28;20549;-56
2022/06/16 05:27:15;;;;;;;6.40;5.80;;;20.90;87.40;;;;;;5032769;28;20450;-56
2022/06/16 05:29:43;;;;;;;6.60;5.60;;;21.10;86.80;;;;;;5033402;28;20824;-55
2022/06/16 05:32:11;;;;;;;6.33;5.73;;;21.10;85.90;;;;;;5033296;28;20446;-56
2022/06/16 05:34:38;;;;;;;10.10;9.10;;;21.20;86.40;;;;;;5033104;28;20530;-56
2022/06/16 05:37:07;;;;;;;7.50;6.30;;;21.30;86.00;;;;;;5033152;28;20454;-56
2022/06/16 05:39:35;;;;;;;5.73;5.23;;;21.30;86.40;;;;;;5033535;28;20568;-57
2022/06/16 05:42:02;;;;;;;6.13;5.50;;;21.40;86.40;;;;;;5033079;28;20482;-57
2022/06/16 05:44:29;;;;;;;5.93;5.43;;;21.40;86.00;;;;;;5033274;28;20478;-57
2022/06/16 05:46:56;;;;;;;6.47;5.87;;;21.50;88.00;;;;;;5032812;28;20536;-57
2022/06/16 05:49:23;;;;;;;6.87;6.20;;;21.50;87.20;;;;;;5032843;28;20470;-57
2022/06/16 05:51:51;;;;;;;7.53;5.50;;;21.60;86.80;;;;;;5032829;28;20457;-57
2022/06/16 05:54:19;;;;;;;6.90;5.50;;;21.60;86.50;;;;;;5032802;28;20481;-57
2022/06/16 05:56:46;;;;;;;5.73;5.33;;;21.80;89.40;;;;;;5032871;28;20529;-57
2022/06/16 05:59:14;;;;;;;7.50;5.33;;;21.90;87.00;;;;;;5033108;28;20470;-57
2022/06/16 06:01:41;;;;;;;9.27;6.83;;;22.00;89.10;;;;;;5032915;28;20565;-57
2022/06/16 06:04:08;;;;;;;6.13;5.63;;;21.90;87.20;;;;;;5033158;28;20474;-57
2022/06/16 06:06:35;;;;;;;7.23;6.03;;;21.90;87.60;;;;;;5033054;28;20450;-56
2022/06/16 06:17:21;;;;;;;7.00;5.90;;;22.00;88.80;;;;;;5036613;28;20817;-56
2022/06/16 06:19:48;;;;;;;6.43;5.80;;;22.00;90.10;;;;;;5036292;28;20470;-56
2022/06/16 06:22:19;;;;;;;5.83;5.43;;;22.00;90.10;;;;;;5036225;28;21069;-56
2022/06/16 06:24:48;;;;;;;6.60;6.10;;;22.10;89.70;;;;;;5036011;28;20462;-56
2022/06/16 06:27:19;;;;;;;6.30;5.67;;;22.00;88.20;;;;;;5018218;28;20455;-56
2022/06/16 06:29:47;;;;;;;10.80;6.03;;;22.10;90.00;;;;;;5016504;28;20623;-56
2022/06/16 06:32:16;;;;;;;6.50;6.00;;;22.10;88.70;;;;;;5016327;28;20935;-56
2022/06/16 06:34:43;;;;;;;6.30;5.70;;;22.10;87.90;;;;;;5016332;28;20427;-56
2022/06/16 06:37:12;;;;;;;6.73;5.63;;;22.20;90.00;;;;;;5016650;28;20451;-56
2022/06/16 06:39:39;;;;;;;6.60;6.00;;;22.40;89.60;;;;;;5015951;28;20858;-56
2022/06/16 06:42:07;;;;;;;9.57;5.93;;;22.60;87.70;;;;;;5016138;28;21023;-56
2022/06/16 06:44:36;;;;;;;8.13;5.40;;;22.60;87.80;;;;;;5016047;28;20882;-56
2022/06/16 06:47:04;;;;;;;6.03;5.57;;;22.70;86.50;;;;;;5016438;28;20517;-56
2022/06/16 06:49:32;;;;;;;6.83;6.17;;;22.80;84.30;;;;;;5015941;28;20766;-56
2022/06/16 06:51:59;;;;;;;6.70;6.10;;;23.10;85.70;;;;;;5016113;28;20989;-56
2022/06/16 06:54:27;;;;;;;11.27;5.60;;;23.10;85.70;;;;;;5016119;28;20462;-56
2022/06/16 06:56:54;;;;;;;6.37;5.77;;;23.30;85.20;;;;;;5016165;28;20537;-56
2022/06/16 06:59:21;;;;;;;5.83;5.43;;;23.50;82.70;;;;;;5015663;28;20474;-56
2022/06/16 07:01:51;;;;;;;6.80;6.20;;;23.60;82.20;;;;;;5015805;28;20486;-56
2022/06/16 07:04:20;;;;;;;5.70;5.30;;;23.90;84.80;;;;;;5015902;28;20547;-55
2022/06/16 07:06:49;;;;;;;7.30;6.60;;;24.10;80.80;;;;;;5015648;28;20447;-56
2022/06/16 07:09:18;;;;;;;6.47;5.97;;;24.50;82.70;;;;;;5015400;28;21005;-57
2022/06/16 07:11:45;;;;;;;6.00;5.50;;;24.60;82.40;;;;;;5015974;28;20471;-57
2022/06/16 07:14:13;;;;;;;5.53;5.10;;;25.00;80.90;;;;;;5015366;28;21077;-56
2022/06/16 07:16:44;;;;;;;5.90;5.40;;;25.30;80.20;;;;;;5015578;28;20514;-56
2022/06/16 07:19:13;;;;;;;5.73;5.07;;;25.60;79.20;;;;;;5015295;28;20470;-56
2022/06/16 07:21:40;;;;;;;11.73;5.87;;;26.20;78.70;;;;;;5015165;28;20490;-56
2022/06/16 07:24:07;;;;;;;4.80;4.30;;;26.50;76.70;;;;;;5015125;28;20534;-56
2022/06/16 07:26:35;;;;;;;5.60;4.50;;;26.60;73.70;;;;;;5015144;28;20451;-57
2022/06/16 07:29:02;;;;;;;5.37;4.70;;;26.50;70.80;;;;;;5015148;28;20471;-56
2022/06/16 07:31:30;;;;;;;5.70;5.20;;;26.60;71.60;;;;;;5015549;28;20473;-56
2022/06/16 07:33:58;;;;;;;5.03;4.63;;;26.90;70.80;;;;;;5015059;28;20458;-56
2022/06/16 07:36:26;;;;;;;4.93;4.53;;;26.70;71.00;;;;;;5015053;28;20457;-57
2022/06/16 07:38:53;;;;;;;5.47;4.97;;;26.50;69.80;;;;;;5014839;28;20490;-56
2022/06/16 07:41:34;;;;;;;5.73;4.93;;;26.40;71.50;;;;;;5015342;28;20566;-56
2022/06/16 07:44:02;;;;;;;4.90;4.50;;;26.80;68.70;;;;;;5015217;28;20435;-56
2022/06/16 07:46:29;;;;;;;5.60;4.90;;;27.70;72.90;;;;;;5015342;28;20451;-58
2022/06/16 07:48:56;;;;;;;5.17;4.77;;;27.70;67.40;;;;;;5014820;28;20473;-57
2022/06/16 07:51:24;;;;;;;5.30;4.33;;;28.30;68.40;;;;;;5015189;28;20442;-57
2022/06/16 07:53:53;;;;;;;5.10;4.70;;;28.90;70.70;;;;;;5014648;28;20447;-57
2022/06/16 07:56:20;;;;;;;4.97;4.60;;;28.80;67.80;;;;;;5014951;28;20507;-57
2022/06/16 07:58:48;;;;;;;5.90;4.70;;;28.50;69.60;;;;;;5014555;28;20953;-57
2022/06/16 08:01:16;;;;;;;5.30;4.80;;;;;;;;;;5014638;28;20486;-57
2022/06/16 08:03:44;;;;;;;5.07;4.53;;;29.90;68.50;;;;;;5014505;28;20485;-57
2022/06/16 08:06:15;;;;;;;6.87;5.23;;;30.10;67.80;;;;;;5014618;28;20451;-57
2022/06/16 08:08:43;;;;;;;5.43;4.93;;;30.20;75.20;;;;;;5014565;28;20459;-58
2022/06/16 08:12:03;;;;;;;6.13;5.53;;;30.30;64.70;;;;;;5014549;28;20455;-57
2022/06/16 08:14:01;;;;;;;5.83;5.33;;;30.60;66.10;;;;;;5014306;28;20483;-57
2022/06/16 08:16:30;;;;;;;5.20;4.80;;;;;;;;;;5014620;28;20538;-57
2022/06/16 08:18:58;;;;;;;5.10;4.60;;;30.00;63.10;;;;;;5014228;28;20471;-57
2022/06/16 08:21:25;;;;;;;5.87;5.37;;;30.20;64.30;;;;;;5014103;28;20458;-58
2022/06/16 08:23:52;;;;;;;5.83;4.60;;;30.00;64.90;;;;;;5014290;28;21021;-57
2022/06/16 08:26:21;;;;;;;5.60;5.17;;;30.60;63.70;;;;;;5014161;28;20992;-57
2022/06/16 08:28:50;;;;;;;6.13;5.50;;;30.80;61.30;;;;;;5014467;28;20447;-57
2022/06/16 08:31:20;;;;;;;4.57;4.27;;;29.90;61.50;;;;;;5013980;28;20806;-57
2022/06/16 08:33:48;;;;;;;6.53;5.60;;;30.30;61.60;;;;;;5013293;28;20469;-57
2022/06/16 08:36:15;;;;;;;6.00;5.00;;;31.40;62.20;;;;;;5014226;28;20455;-57
2022/06/16 08:38:42;;;;;;;4.83;4.43;;;31.70;59.80;;;;;;5014387;28;20462;-57
2022/06/16 08:41:16;;;;;;;5.60;4.20;;;31.60;58.80;;;;;;5014361;28;20570;-57
2022/06/16 08:43:52;;;;;;;9.50;4.90;;;31.10;58.50;;;;;;5014003;28;20432;-57
2022/06/16 08:46:21;;;;;;;6.33;4.77;;;29.50;59.40;;;;;;5014216;28;20514;-57
2022/06/16 08:48:58;;;;;;;4.80;4.40;;;28.50;59.50;;;;;;5013715;28;20867;-57
2022/06/16 08:51:39;;;;;;;6.03;4.53;;;27.80;58.80;;;;;;5013899;28;20910;-57
2022/06/16 08:54:19;;;;;;;9.27;4.60;;;27.40;59.70;;;;;;5013969;28;20523;-57
2022/06/16 08:56:54;;;;;;;5.70;5.10;;;27.20;59.80;;;;;;5013781;28;20428;-57
2022/06/16 08:59:31;;;;;;;4.80;4.30;;;28.40;60.10;;;;;;5013611;28;20513;-57
2022/06/16 09:02:06;;;;;;;5.17;4.70;;;29.50;59.30;;;;;;5013700;28;20490;-57
2022/06/16 09:04:36;;;;;;;4.70;4.30;;;30.10;57.80;;;;;;5013880;28;20474;-57
2022/06/16 09:07:14;;;;;;;4.73;4.33;;;30.30;57.30;;;;;;5013505;28;20431;-57
2022/06/16 09:12:55;;;;;;;5.03;4.00;;;31.10;58.30;;;;;;5013559;28;20407;-57
2022/06/16 09:15:33;;;;;;;4.57;4.27;;;31.10;56.20;;;;;;4974588;28;20861;-57
2022/06/16 09:18:21;;;;;;;4.47;4.07;;;31.00;56.50;;;;;;4974684;28;20467;-57
2022/06/16 09:20:54;;;;;;;5.47;4.97;;;32.10;57.60;;;;;;4974563;28;20467;-57
2022/06/16 09:23:27;;;;;;;5.00;4.10;;;;;;;;;;4974601;28;20555;-57
2022/06/16 09:26:02;;;;;;;11.93;5.30;;;;;;;;;;4981661;28;20455;-57
2022/06/16 09:28:35;;;;;;;12.90;6.07;;;32.50;56.10;;;;;;4994036;28;20515;-57
2022/06/16 09:31:09;;;;;;;5.10;4.70;;;32.10;57.40;;;;;;4993947;28;20436;-57
2022/06/16 09:33:40;;;;;;;5.70;5.30;;;31.00;57.00;;;;;;4993726;28;20836;-57
2022/06/16 09:36:12;;;;;;;6.60;4.90;;;31.50;57.10;;;;;;4993982;28;20438;-57
2022/06/16 09:38:45;;;;;;;4.63;4.23;;;32.10;56.60;;;;;;4993902;28;20463;-57
2022/06/16 09:43:58;;;;;;;6.00;3.90;;;32.70;57.80;;;;;;4993494;28;20459;-57
2022/06/16 09:46:32;;;;;;;5.53;4.80;;;33.10;55.80;;;;;;4996818;28;20550;-57
2022/06/16 09:49:05;;;;;;;7.77;4.90;;;32.80;56.00;;;;;;4997763;28;20475;-57
2022/06/16 09:51:36;;;;;;;5.03;4.63;;;32.90;56.30;;;;;;4997855;28;20442;-57
2022/06/16 09:54:11;;;;;;;5.40;4.50;;;33.00;56.20;;;;;;4997426;28;20830;-57
2022/06/16 09:56:44;;;;;;;4.87;4.47;;;32.80;56.90;;;;;;4997509;28;20443;-57
2022/06/16 09:59:13;;;;;;;8.00;4.47;;;33.00;55.40;;;;;;4997255;28;20895;-57
2022/06/16 10:01:49;;;;;;;7.43;4.80;;;33.10;55.90;;;;;;4997490;28;20455;-57
2022/06/16 10:04:17;;;;;;;4.80;3.80;;;32.50;55.70;;;;;;4997685;28;20431;-57
2022/06/16 10:06:54;;;;;;;5.00;4.60;;;32.30;55.80;;;;;;4997404;28;20451;-57
2022/06/16 10:09:27;;;;;;;4.47;4.07;;;32.40;56.20;;;;;;4997556;28;20507;-57
2022/06/16 10:12:02;;;;;;;5.33;4.87;;;32.30;55.80;;;;;;4997486;28;20459;-57
2022/06/16 10:14:42;;;;;;;4.83;4.40;;;32.40;56.60;;;;;;5026382;28;20507;-57
2022/06/16 10:17:13;;;;;;;5.43;4.07;;;32.70;56.60;;;;;;5036419;28;20525;-57
2022/06/16 10:19:44;;;;;;;4.77;4.33;;;33.10;55.30;;;;;;5036271;28;20984;-57
2022/06/16 10:22:14;;;;;;;4.40;4.00;;;33.40;55.70;;;;;;5023825;28;20484;-57
2022/06/16 10:24:45;;;;;;;5.47;4.97;;;33.50;55.60;;;;;;5019447;28;20457;-57
2022/06/16 10:27:16;;;;;;;4.17;3.70;;;33.20;55.60;;;;;;5032969;28;20544;-57
2022/06/16 10:29:53;;;;;;;4.70;3.90;;;33.40;55.20;;;;;;5016626;28;20818;-57
2022/06/16 10:32:37;;;;;;;5.33;4.83;;;34.10;55.10;;;;;;5016500;28;20546;-57
2022/06/16 10:35:06;;;;;;;4.40;4.03;;;33.90;55.10;;;;;;5016685;28;20504;-57
2022/06/16 10:37:40;;;;;;;4.77;4.00;;;34.20;54.00;;;;;;5018249;28;20457;-57
2022/06/16 10:40:13;;;;;;;5.10;4.23;;;33.60;55.10;;;;;;5035539;28;20473;-57
2022/06/16 10:42:43;;;;;;;4.27;3.87;;;33.90;54.10;;;;;;5035626;28;20470;-57
2022/06/16 10:45:14;;;;;;;4.70;4.30;;;33.70;54.60;;;;;;5035485;28;20959;-57
2022/06/16 10:47:49;;;;;;;4.30;4.00;;;33.70;53.90;;;;;;5035644;28;20898;-57
2022/06/16 10:50:21;;;;;;;6.10;4.33;;;33.70;54.40;;;;;;5035804;28;20909;-57
2022/06/16 10:52:55;;;;;;;3.23;3.03;;;33.40;54.50;;;;;;5035561;28;20430;-57
2022/06/16 10:55:25;;;;;;;3.87;3.57;;;33.50;54.00;;;;;;5032665;28;20821;-57
2022/06/16 10:58:00;;;;;;;10.80;4.50;;;33.40;53.50;;;;;;5015352;28;20455;-57
2022/06/16 11:00:32;;;;;;;5.03;4.53;;;33.10;53.90;;;;;;5016185;28;20561;-57
2022/06/16 11:03:15;;;;;;;8.43;4.53;;;32.40;54.60;;;;;;5015803;28;20466;-57
2022/06/16 11:05:53;;;;;;;4.63;4.13;;;32.80;55.50;;;;;;5016158;28;20435;-57
2022/06/16 11:08:22;;;;;;;4.27;3.97;;;33.30;54.30;;;;;;5015437;28;20461;-57
2022/06/16 11:10:55;;;;;;;5.37;4.17;;;33.50;54.00;;;;;;5015104;28;20553;-57
2022/06/16 11:13:27;;;;;;;4.67;3.97;;;33.40;53.40;;;;;;5015766;28;20848;-57
2022/06/16 11:15:56;;;;;;;4.73;4.33;;;33.10;54.10;;;;;;5015266;28;20914;-57
2022/06/16 11:18:28;;;;;;;6.10;3.70;;;33.20;53.60;;;;;;5015495;28;20450;-57
2022/06/16 11:20:57;;;;;;;5.77;4.00;;;33.30;53.80;;;;;;5015702;28;20434;-57
2022/06/16 11:23:31;;;;;;;5.07;4.00;;;33.40;53.70;;;;;;5015871;28;20508;-57
2022/06/16 11:26:09;;;;;;;4.83;3.50;;;33.50;54.40;;;;;;5023351;28;20487;-57
2022/06/16 11:28:43;;;;;;;5.90;3.97;;;33.80;53.80;;;;;;5035465;28;20437;-57
2022/06/16 11:31:15;;;;;;;4.53;4.13;;;33.90;53.60;;;;;;5035560;28;20465;-57
2022/06/16 11:36:50;;;;;;;4.50;4.10;;;34.20;52.90;;;;;;5035160;28;20774;-57
2022/06/16 11:39:24;;;;;;;4.33;3.93;;;33.80;52.50;;;;;;5035224;28;20484;-57
2022/06/16 11:41:54;;;;;;;4.90;3.90;;;33.70;52.40;;;;;;5035292;28;20526;-57
2022/06/16 11:44:25;;;;;;;4.87;4.30;;;;;;;;;;5035121;28;20842;-57
2022/06/16 11:47:01;;;;;;;6.03;4.17;;;34.40;52.00;;;;;;5035157;28;20437;-57
2022/06/16 11:49:36;;;;;;;4.40;4.00;;;34.50;52.90;;;;;;5034766;28;20479;-57
2022/06/16 11:52:16;;;;;;;6.67;4.53;;;34.40;51.60;;;;;;5034709;28;21035;-57
2022/06/16 11:54:54;;;;;;;3.83;3.50;;;34.30;52.30;;;;;;5034834;28;20430;-57
2022/06/16 11:57:30;;;;;;;4.33;3.93;;;34.00;51.70;;;;;;5034362;28;20948;-57
2022/06/16 12:00:20;;;;;;;5.00;4.37;;;33.80;51.60;;;;;;5034434;28;20553;-56
2022/06/16 12:03:35;;;;;;;4.90;3.97;;;33.70;51.20;;;;;;5034538;28;20520;-57
2022/06/16 12:06:27;;;;;;;3.80;3.50;;;33.40;51.70;;;;;;5029535;28;20446;-57
2022/06/16 12:09:07;;;;;;;4.63;3.80;;;33.40;51.40;;;;;;5034464;28;20556;-57
2022/06/16 12:11:42;;;;;;;4.57;3.77;;;33.90;50.80;;;;;;5034445;28;20429;-56
2022/06/16 12:14:26;;;;;;;4.40;4.00;;;34.00;50.50;;;;;;5034265;28;20540;-57
2022/06/16 12:17:01;;;;;;;4.60;4.20;;;33.60;50.60;;;;;;5034485;28;20430;-57
2022/06/16 12:19:41;;;;;;;4.07;3.67;;;33.30;51.30;;;;;;5034219;28;20461;-57
2022/06/16 12:22:15;;;;;;;5.17;4.67;;;33.30;51.90;;;;;;5034670;28;20509;-57
2022/06/16 12:24:50;;;;;;;5.00;3.67;;;33.20;51.50;;;;;;5033963;28;20505;-57
2022/06/16 12:27:23;;;;;;;4.90;4.60;;;33.10;51.70;;;;;;5033744;28;20541;-57
2022/06/16 12:30:00;;;;;;;5.70;4.30;;;32.80;52.00;;;;;;5034209;28;20881;-57
2022/06/16 12:32:40;;;;;;;4.77;4.37;;;32.40;52.00;;;;;;5033993;28;20442;-57
2022/06/16 12:35:21;;;;;;;3.80;3.50;;;32.70;51.00;;;;;;5033738;28;21001;-57
2022/06/16 12:37:54;;;;;;;6.57;3.83;;;33.00;51.70;;;;;;5033871;28;20410;-57
2022/06/16 12:40:31;;;;;;;6.90;4.23;;;32.70;51.30;;;;;;5033497;28;20469;-57
2022/06/16 12:43:03;;;;;;;4.57;4.20;;;33.00;51.00;;;;;;5033661;28;20976;-57
2022/06/16 12:45:36;;;;;;;3.90;3.60;;;33.30;51.20;;;;;;5033839;28;20517;-57
2022/06/16 12:48:07;;;;;;;6.57;4.73;;;33.10;51.50;;;;;;5033897;28;20461;-57
2022/06/16 12:50:38;;;;;;;5.80;3.60;;;33.30;51.10;;;;;;5033561;28;21040;-57
2022/06/16 12:53:11;;;;;;;6.73;4.57;;;33.20;50.80;;;;;;5033429;28;20430;-57
2022/06/16 12:55:43;;;;;;;4.83;4.53;;;33.40;50.70;;;;;;5033590;28;20438;-57
2022/06/16 12:58:16;;;;;;;4.60;4.20;;;33.40;50.10;;;;;;5033728;28;20782;-57
2022/06/16 13:00:47;;;;;;;4.90;3.90;;;33.20;51.30;;;;;;5033680;28;20545;-57
2022/06/16 13:03:21;;;;;;;4.13;3.60;;;32.80;50.60;;;;;;5033558;28;20476;-57
2022/06/16 13:05:49;;;;;;;3.63;3.30;;;32.30;49.50;;;;;;5033519;28;20430;-57
2022/06/16 13:08:18;;;;;;;3.77;3.47;;;32.40;50.30;;;;;;5033473;28;20817;-57
2022/06/16 13:10:51;;;;;;;4.20;3.80;;;32.40;49.20;;;;;;5033309;28;20466;-57
2022/06/16 13:13:27;;;;;;;5.97;4.00;;;32.90;49.60;;;;;;5033020;28;20929;-57
2022/06/16 13:15:59;;;;;;;5.07;3.90;;;33.20;50.10;;;;;;5033105;28;20434;-57
2022/06/16 13:18:30;;;;;;;5.43;3.87;;;32.70;49.10;;;;;;5033616;28;20440;-57
2022/06/16 13:21:02;;;;;;;5.70;3.90;;;32.00;49.00;;;;;;5033072;28;20461;-57
2022/06/16 13:23:34;;;;;;;5.10;3.63;;;31.50;50.30;;;;;;5033201;28;20952;-57
2022/06/16 13:26:22;;;;;;;4.37;3.80;;;31.40;50.00;;;;;;5032773;28;20446;-57
2022/06/16 13:29:01;;;;;;;4.60;4.13;;;31.80;50.00;;;;;;5033496;28;20470;-57
2022/06/16 13:31:29;;;;;;;4.83;3.57;;;;;;;;;;5033390;28;20443;-57
2022/06/16 13:34:14;;;;;;;4.10;3.70;;;32.00;49.00;;;;;;5033240;28;20474;-57
2022/06/16 13:36:51;;;;;;;4.33;3.87;;;31.60;48.80;;;;;;5033491;28;20441;-57